Aviation Digital Data Service (ADDS)

Output produced by METARs form (0211 UTC 11 December 2016)
found at http://aviationweather.gov/adds/metars/
 
KLWB 102320Z 1100/1124 00000KT P6SM SKC 
     FM110400 00000KT P6SM BKN120 
     FM111500 12004KT P6SM BKN120